sensor_id;sensor_type;location;lat;lon;timestamp;temperature;humidity
44447;DHT22;30152;52.066;5.358;2023-03-13T08:02:07;12.50;99.90
44447;DHT22;30152;52.066;5.358;2023-03-13T08:04:33;12.20;99.90
44447;DHT22;30152;52.066;5.358;2023-03-13T08:11:50;12.30;99.90
44447;DHT22;30152;52.066;5.358;2023-03-13T08:14:16;12.60;99.90
44447;DHT22;30152;52.066;5.358;2023-03-13T08:16:41;12.20;99.90
44447;DHT22;30152;52.066;5.358;2023-03-13T08:19:07;12.40;99.90
44447;DHT22;30152;52.066;5.358;2023-03-13T08:21:34;12.20;99.90
44447;DHT22;30152;52.066;5.358;2023-03-13T08:24:06;12.50;99.90
44447;DHT22;30152;52.066;5.358;2023-03-13T08:26:34;12.40;99.90
44447;DHT22;30152;52.066;5.358;2023-03-13T08:29:03;12.90;99.90
44447;DHT22;30152;52.066;5.358;2023-03-13T08:31:35;12.40;99.90
44447;DHT22;30152;52.066;5.358;2023-03-13T08:36:32;12.20;99.90
44447;DHT22;30152;52.066;5.358;2023-03-13T08:39:00;12.40;99.90
44447;DHT22;30152;52.066;5.358;2023-03-13T08:41:29;13.60;99.90
44447;DHT22;30152;52.066;5.358;2023-03-13T08:43:55;12.60;99.90
44447;DHT22;30152;52.066;5.358;2023-03-13T08:46:21;12.60;99.90
44447;DHT22;30152;52.066;5.358;2023-03-13T08:48:51;12.70;99.90
44447;DHT22;30152;52.066;5.358;2023-03-13T08:51:18;12.80;99.90
44447;DHT22;30152;52.066;5.358;2023-03-13T08:53:44;12.50;99.90
44447;DHT22;30152;52.066;5.358;2023-03-13T08:56:12;12.70;99.90
44447;DHT22;30152;52.066;5.358;2023-03-13T08:58:38;12.60;99.90
44447;DHT22;30152;52.066;5.358;2023-03-13T09:01:08;12.80;99.90
44447;DHT22;30152;52.066;5.358;2023-03-13T09:03:34;12.90;99.90
44447;DHT22;30152;52.066;5.358;2023-03-13T09:06:00;13.10;99.90
44447;DHT22;30152;52.066;5.358;2023-03-13T09:08:27;12.30;99.90
44447;DHT22;30152;52.066;5.358;2023-03-13T09:11:00;13.70;99.90
44447;DHT22;30152;52.066;5.358;2023-03-13T09:13:27;12.80;99.90
44447;DHT22;30152;52.066;5.358;2023-03-13T09:16:04;13.00;99.90
44447;DHT22;30152;52.066;5.358;2023-03-13T09:18:30;13.30;99.90
44447;DHT22;30152;52.066;5.358;2023-03-13T09:23:22;13.80;99.90
44447;DHT22;30152;52.066;5.358;2023-03-13T09:25:51;13.80;99.90
44447;DHT22;30152;52.066;5.358;2023-03-13T09:28:17;14.00;99.90
44447;DHT22;30152;52.066;5.358;2023-03-13T09:30:43;14.10;99.90
44447;DHT22;30152;52.066;5.358;2023-03-13T09:33:09;13.60;99.90
44447;DHT22;30152;52.066;5.358;2023-03-13T09:35:36;14.40;99.90
44447;DHT22;30152;52.066;5.358;2023-03-13T09:40:28;14.10;99.90
44447;DHT22;30152;52.066;5.358;2023-03-13T09:42:58;13.90;99.90
44447;DHT22;30152;52.066;5.358;2023-03-13T09:45:29;14.30;99.90
44447;DHT22;30152;52.066;5.358;2023-03-13T09:48:04;14.40;99.90
44447;DHT22;30152;52.066;5.358;2023-03-13T09:50:34;14.40;99.90
44447;DHT22;30152;52.066;5.358;2023-03-13T09:53:05;13.90;99.90
44447;DHT22;30152;52.066;5.358;2023-03-13T09:55:37;14.40;99.90
44447;DHT22;30152;52.066;5.358;2023-03-13T09:58:24;14.50;99.90
44447;DHT22;30152;52.066;5.358;2023-03-13T10:00:57;14.50;99.90
44447;DHT22;30152;52.066;5.358;2023-03-13T10:03:29;14.70;99.90
44447;DHT22;30152;52.066;5.358;2023-03-13T10:05:59;14.80;99.90
44447;DHT22;30152;52.066;5.358;2023-03-13T10:08:29;15.00;99.90
44447;DHT22;30152;52.066;5.358;2023-03-13T10:16:26;15.30;99.90
44447;DHT22;30152;52.066;5.358;2023-03-13T10:18:56;15.50;99.90
44447;DHT22;30152;52.066;5.358;2023-03-13T10:21:25;16.80;99.90
44447;DHT22;30152;52.066;5.358;2023-03-13T10:24:04;15.70;99.90
44447;DHT22;30152;52.066;5.358;2023-03-13T10:26:35;15.40;99.90
44447;DHT22;30152;52.066;5.358;2023-03-13T10:29:20;15.50;99.90
44447;DHT22;30152;52.066;5.358;2023-03-13T10:31:55;15.40;99.90
44447;DHT22;30152;52.066;5.358;2023-03-13T10:34:23;15.30;99.90
44447;DHT22;30152;52.066;5.358;2023-03-13T10:36:54;15.40;99.90
44447;DHT22;30152;52.066;5.358;2023-03-13T10:39:22;15.40;99.90
44447;DHT22;30152;52.066;5.358;2023-03-13T10:41:48;15.10;99.90
44447;DHT22;30152;52.066;5.358;2023-03-13T10:44:17;15.30;99.90
44447;DHT22;30152;52.066;5.358;2023-03-13T10:46:45;15.20;99.90
44447;DHT22;30152;52.066;5.358;2023-03-13T10:49:19;15.30;99.90
44447;DHT22;30152;52.066;5.358;2023-03-13T10:51:54;16.00;99.90
44447;DHT22;30152;52.066;5.358;2023-03-13T10:54:31;15.20;99.90
44447;DHT22;30152;52.066;5.358;2023-03-13T10:59:50;16.20;99.90
44447;DHT22;30152;52.066;5.358;2023-03-13T11:02:31;16.30;99.90
44447;DHT22;30152;52.066;5.358;2023-03-13T12:10:17;16.50;99.90
44447;DHT22;30152;52.066;5.358;2023-03-13T12:12:48;16.10;99.10
44447;DHT22;30152;52.066;5.358;2023-03-13T12:25:52;17.10;95.90
44447;DHT22;30152;52.066;5.358;2023-03-13T12:36:23;17.80;96.00
44447;DHT22;30152;52.066;5.358;2023-03-13T12:41:25;17.10;95.20
44447;DHT22;30152;52.066;5.358;2023-03-13T12:43:53;17.40;95.60
44447;DHT22;30152;52.066;5.358;2023-03-13T12:49:22;16.80;96.20
44447;DHT22;30152;52.066;5.358;2023-03-13T13:00:18;17.20;96.40
44447;DHT22;30152;52.066;5.358;2023-03-13T13:02:45;17.30;96.30
44447;DHT22;30152;52.066;5.358;2023-03-13T13:05:19;17.30;96.00
44447;DHT22;30152;52.066;5.358;2023-03-13T13:07:53;16.80;96.00
44447;DHT22;30152;52.066;5.358;2023-03-13T13:10:24;16.50;96.00
44447;DHT22;30152;52.066;5.358;2023-03-13T13:15:47;17.20;96.70
44447;DHT22;30152;52.066;5.358;2023-03-13T13:18:27;17.40;96.50
44447;DHT22;30152;52.066;5.358;2023-03-13T13:23:39;16.50;96.80
44447;DHT22;30152;52.066;5.358;2023-03-13T13:28:54;17.30;97.40
44447;DHT22;30152;52.066;5.358;2023-03-13T13:39:52;16.80;96.80
44447;DHT22;30152;52.066;5.358;2023-03-13T13:47:29;16.60;94.90
44447;DHT22;30152;52.066;5.358;2023-03-13T13:49:57;16.70;94.50
44447;DHT22;30152;52.066;5.358;2023-03-13T13:52:32;16.50;94.00
44447;DHT22;30152;52.066;5.358;2023-03-13T13:54:58;17.00;94.70
44447;DHT22;30152;52.066;5.358;2023-03-13T13:57:31;16.40;94.30
44447;DHT22;30152;52.066;5.358;2023-03-13T14:02:34;16.70;94.80
44447;DHT22;30152;52.066;5.358;2023-03-13T14:07:47;17.00;94.30
44447;DHT22;30152;52.066;5.358;2023-03-13T14:10:25;16.60;94.30
44447;DHT22;30152;52.066;5.358;2023-03-13T14:12:54;16.20;94.90
44447;DHT22;30152;52.066;5.358;2023-03-13T14:15:23;16.90;94.70
44447;DHT22;30152;52.066;5.358;2023-03-13T14:17:54;16.90;94.50
44447;DHT22;30152;52.066;5.358;2023-03-13T14:20:24;16.80;94.80
44447;DHT22;30152;52.066;5.358;2023-03-13T14:22:52;16.40;94.80
44447;DHT22;30152;52.066;5.358;2023-03-13T14:25:20;16.50;94.60
44447;DHT22;30152;52.066;5.358;2023-03-13T14:27:46;16.70;94.40
44447;DHT22;30152;52.066;5.358;2023-03-13T14:30:15;16.70;94.80
44447;DHT22;30152;52.066;5.358;2023-03-13T14:32:41;17.30;94.70
44447;DHT22;30152;52.066;5.358;2023-03-13T14:35:09;16.70;94.10
44447;DHT22;30152;52.066;5.358;2023-03-13T14:37:37;16.50;94.50
44447;DHT22;30152;52.066;5.358;2023-03-13T14:40:07;16.80;94.10
44447;DHT22;30152;52.066;5.358;2023-03-13T14:42:42;16.50;94.00
44447;DHT22;30152;52.066;5.358;2023-03-13T14:45:15;16.50;94.00
44447;DHT22;30152;52.066;5.358;2023-03-13T14:47:43;17.00;94.30
44447;DHT22;30152;52.066;5.358;2023-03-13T14:50:11;17.10;94.10
44447;DHT22;30152;52.066;5.358;2023-03-13T14:52:44;17.20;93.70
44447;DHT22;30152;52.066;5.358;2023-03-13T15:00:46;17.70;94.10
44447;DHT22;30152;52.066;5.358;2023-03-13T15:08:13;16.60;94.00
44447;DHT22;30152;52.066;5.358;2023-03-13T15:10:40;15.90;94.30
44447;DHT22;30152;52.066;5.358;2023-03-13T15:15:51;16.00;95.40
44447;DHT22;30152;52.066;5.358;2023-03-13T15:18:21;16.40;95.40
44447;DHT22;30152;52.066;5.358;2023-03-13T15:20:52;16.30;95.30
44447;DHT22;30152;52.066;5.358;2023-03-13T15:23:18;17.10;95.10
44447;DHT22;30152;52.066;5.358;2023-03-13T15:25:44;16.00;95.10
44447;DHT22;30152;52.066;5.358;2023-03-13T15:28:18;16.10;95.10
44447;DHT22;30152;52.066;5.358;2023-03-13T15:30:47;16.00;95.20
44447;DHT22;30152;52.066;5.358;2023-03-13T15:33:15;16.00;95.80
44447;DHT22;30152;52.066;5.358;2023-03-13T15:35:41;17.20;96.20
44447;DHT22;30152;52.066;5.358;2023-03-13T15:38:18;16.20;96.20
44447;DHT22;30152;52.066;5.358;2023-03-13T15:40:44;15.90;95.90
44447;DHT22;30152;52.066;5.358;2023-03-13T15:43:11;16.00;96.10
44447;DHT22;30152;52.066;5.358;2023-03-13T15:45:39;15.90;95.40
44447;DHT22;30152;52.066;5.358;2023-03-13T15:48:11;15.90;96.30
44447;DHT22;30152;52.066;5.358;2023-03-13T15:50:38;15.80;95.60
44447;DHT22;30152;52.066;5.358;2023-03-13T15:53:26;15.40;95.90
44447;DHT22;30152;52.066;5.358;2023-03-13T15:55:53;15.60;96.60
44447;DHT22;30152;52.066;5.358;2023-03-13T15:58:19;15.40;96.70
44447;DHT22;30152;52.066;5.358;2023-03-13T16:00:45;15.40;96.40
44447;DHT22;30152;52.066;5.358;2023-03-13T16:03:17;15.40;95.90
44447;DHT22;30152;52.066;5.358;2023-03-13T16:05:43;16.30;96.80
44447;DHT22;30152;52.066;5.358;2023-03-13T16:08:13;15.20;95.90
44447;DHT22;30152;52.066;5.358;2023-03-13T16:10:39;15.00;96.80
44447;DHT22;30152;52.066;5.358;2023-03-13T16:15:33;15.30;96.70
44447;DHT22;30152;52.066;5.358;2023-03-13T16:17:58;15.20;96.30
44447;DHT22;30152;52.066;5.358;2023-03-13T16:20:24;14.90;96.50
44447;DHT22;30152;52.066;5.358;2023-03-13T16:22:51;14.60;96.70
44447;DHT22;30152;52.066;5.358;2023-03-13T16:25:16;15.40;97.00
44447;DHT22;30152;52.066;5.358;2023-03-13T16:27:42;15.00;97.30
44447;DHT22;30152;52.066;5.358;2023-03-13T16:30:16;15.10;97.60
44447;DHT22;30152;52.066;5.358;2023-03-13T16:32:42;14.80;97.40
44447;DHT22;30152;52.066;5.358;2023-03-13T16:35:08;14.60;97.90
44447;DHT22;30152;52.066;5.358;2023-03-13T16:37:33;14.40;97.60
44447;DHT22;30152;52.066;5.358;2023-03-13T16:42:26;14.60;97.90
44447;DHT22;30152;52.066;5.358;2023-03-13T16:44:51;14.70;98.10
44447;DHT22;30152;52.066;5.358;2023-03-13T16:47:23;14.70;98.10
44447;DHT22;30152;52.066;5.358;2023-03-13T16:49:51;14.20;98.40
44447;DHT22;30152;52.066;5.358;2023-03-13T16:52:17;14.10;99.30
44447;DHT22;30152;52.066;5.358;2023-03-13T16:54:43;14.40;98.80
44447;DHT22;30152;52.066;5.358;2023-03-13T16:57:11;14.00;99.10
44447;DHT22;30152;52.066;5.358;2023-03-13T16:59:36;15.10;99.50
44447;DHT22;30152;52.066;5.358;2023-03-13T17:04:28;14.00;99.40
44447;DHT22;30152;52.066;5.358;2023-03-13T17:06:53;14.00;99.50
44447;DHT22;30152;52.066;5.358;2023-03-13T18:20:24;12.30;99.90
44447;DHT22;30152;52.066;5.358;2023-03-13T18:22:50;12.20;99.90
44447;DHT22;30152;52.066;5.358;2023-03-13T18:27:42;11.70;99.90
44447;DHT22;30152;52.066;5.358;2023-03-13T18:30:21;11.90;99.90
44447;DHT22;30152;52.066;5.358;2023-03-13T18:32:47;12.00;99.90
44447;DHT22;30152;52.066;5.358;2023-03-13T18:35:13;11.90;99.90
44447;DHT22;30152;52.066;5.358;2023-03-13T18:37:42;11.30;99.90
44447;DHT22;30152;52.066;5.358;2023-03-13T19:48:59;10.40;99.90
44447;DHT22;30152;52.066;5.358;2023-03-13T19:51:26;10.60;99.90
44447;DHT22;30152;52.066;5.358;2023-03-13T19:56:22;10.50;99.90
44447;DHT22;30152;52.066;5.358;2023-03-13T19:58:49;10.20;99.90
44447;DHT22;30152;52.066;5.358;2023-03-13T20:01:16;12.00;99.90
44447;DHT22;30152;52.066;5.358;2023-03-13T20:03:42;10.50;99.90
44447;DHT22;30152;52.066;5.358;2023-03-13T20:06:26;10.20;99.90
44447;DHT22;30152;52.066;5.358;2023-03-13T20:08:57;10.60;99.90
44447;DHT22;30152;52.066;5.358;2023-03-13T20:16:15;10.00;99.90
44447;DHT22;30152;52.066;5.358;2023-03-13T20:21:14;10.30;99.90
44447;DHT22;30152;52.066;5.358;2023-03-13T20:23:41;9.60;99.90
44447;DHT22;30152;52.066;5.358;2023-03-13T20:26:08;9.90;99.90
44447;DHT22;30152;52.066;5.358;2023-03-13T20:28:39;9.80;99.90
44447;DHT22;30152;52.066;5.358;2023-03-13T20:43:18;8.50;99.90
44447;DHT22;30152;52.066;5.358;2023-03-13T20:48:09;9.70;99.90
44447;DHT22;30152;52.066;5.358;2023-03-13T20:50:35;9.50;99.90
44447;DHT22;30152;52.066;5.358;2023-03-13T21:02:47;9.70;99.90
44447;DHT22;30152;52.066;5.358;2023-03-13T21:05:13;9.50;99.90
44447;DHT22;30152;52.066;5.358;2023-03-13T21:07:39;9.30;99.90
44447;DHT22;30152;52.066;5.358;2023-03-13T21:14:57;10.00;99.90
44447;DHT22;30152;52.066;5.358;2023-03-13T21:17:26;10.80;99.90
44447;DHT22;30152;52.066;5.358;2023-03-13T21:19:51;11.20;99.90
44447;DHT22;30152;52.066;5.358;2023-03-13T21:24:43;9.90;99.90
44447;DHT22;30152;52.066;5.358;2023-03-13T21:27:10;10.10;99.90
44447;DHT22;30152;52.066;5.358;2023-03-13T21:32:04;10.20;99.90
44447;DHT22;30152;52.066;5.358;2023-03-13T21:36:56;10.70;99.90
44447;DHT22;30152;52.066;5.358;2023-03-13T21:51:37;11.00;99.90
44447;DHT22;30152;52.066;5.358;2023-03-13T21:58:54;11.20;99.90
44447;DHT22;30152;52.066;5.358;2023-03-13T22:01:20;11.30;99.90
44447;DHT22;30152;52.066;5.358;2023-03-13T22:03:46;11.20;99.90
44447;DHT22;30152;52.066;5.358;2023-03-13T22:06:19;11.40;99.90
44447;DHT22;30152;52.066;5.358;2023-03-13T22:08:46;11.40;99.90
44447;DHT22;30152;52.066;5.358;2023-03-13T22:13:38;11.50;99.90
44447;DHT22;30152;52.066;5.358;2023-03-13T22:20:57;11.10;99.90
44447;DHT22;30152;52.066;5.358;2023-03-13T22:23:23;11.10;99.90
44447;DHT22;30152;52.066;5.358;2023-03-13T22:28:15;11.30;99.90
44447;DHT22;30152;52.066;5.358;2023-03-13T22:30:42;11.20;99.90
44447;DHT22;30152;52.066;5.358;2023-03-13T22:35:37;11.20;99.90
44447;DHT22;30152;52.066;5.358;2023-03-13T22:38:03;11.50;99.90
44447;DHT22;30152;52.066;5.358;2023-03-13T22:42:55;11.20;99.90
44447;DHT22;30152;52.066;5.358;2023-03-13T22:45:21;11.00;99.90
44447;DHT22;30152;52.066;5.358;2023-03-13T22:47:47;11.50;99.90
44447;DHT22;30152;52.066;5.358;2023-03-13T22:50:13;11.40;99.90
44447;DHT22;30152;52.066;5.358;2023-03-13T22:52:41;11.40;99.90
